Time;durP1;ratioP1;P1;durP2;ratioP2;P2;SDS_P1;SDS_P2;PMS_P1;PMS_P2;Temp;Humidity;BMP_temperature;BMP_pressure;BME280_temperature;BME280_humidity;BME280_pressure;Samples;Min_cycle;Max_cycle;Signal;HPM_P1;HPM_P2
2021/03/03 00:00:32;;;;;;;5.28;4.57;;;0.90;99.90;;;;;;4883044;29;20411;-77
2021/03/03 00:02:58;;;;;;;4.90;4.10;;;0.80;99.90;;;;;;4896505;29;20402;-76
2021/03/03 00:05:23;;;;;;;6.43;4.60;;;0.80;99.90;;;;;;4892455;29;20421;-77
2021/03/03 00:07:49;;;;;;;7.03;5.03;;;0.80;99.90;;;;;;4908495;29;20411;-77
2021/03/03 00:10:15;;;;;;;5.25;4.60;;;0.70;99.90;;;;;;4876605;29;20537;-77
2021/03/03 00:12:41;;;;;;;6.27;4.53;;;0.70;99.90;;;;;;4912873;28;20518;-75
2021/03/03 00:15:07;;;;;;;6.23;5.10;;;0.70;99.90;;;;;;4915755;29;20403;-76
2021/03/03 00:17:33;;;;;;;5.55;4.95;;;0.70;99.90;;;;;;4907862;29;20482;-77
2021/03/03 00:19:58;;;;;;;6.85;5.35;;;0.60;99.90;;;;;;4877967;29;20415;-76
2021/03/03 00:22:24;;;;;;;5.63;5.03;;;0.60;99.90;;;;;;4898960;29;20406;-76
2021/03/03 00:24:50;;;;;;;5.82;5.25;;;0.60;99.90;;;;;;4916873;29;20417;-76
2021/03/03 00:27:15;;;;;;;6.38;5.18;;;0.50;99.90;;;;;;4903970;29;20419;-76
2021/03/03 00:29:44;;;;;;;7.90;5.73;;;0.50;99.90;;;;;;4884594;29;20404;-76
2021/03/03 00:32:10;;;;;;;7.55;5.15;;;0.50;99.90;;;;;;4895812;29;20423;-76
2021/03/03 00:34:35;;;;;;;5.88;5.20;;;0.40;99.90;;;;;;4903542;29;20415;-76
2021/03/03 00:37:01;;;;;;;7.33;5.47;;;0.40;99.90;;;;;;4914815;29;20407;-76
2021/03/03 00:39:27;;;;;;;7.68;6.05;;;0.30;99.90;;;;;;4904597;29;20529;-76
2021/03/03 00:41:53;;;;;;;6.65;5.50;;;0.30;99.90;;;;;;4903191;29;20443;-77
2021/03/03 00:44:19;;;;;;;7.20;5.53;;;0.30;99.90;;;;;;4906454;29;20439;-77
2021/03/03 00:46:44;;;;;;;7.63;5.93;;;0.30;99.90;;;;;;4901681;28;20418;-75
2021/03/03 00:49:10;;;;;;;8.32;6.95;;;0.30;99.90;;;;;;4923188;29;20405;-76
2021/03/03 00:51:36;;;;;;;9.55;7.05;;;0.20;99.90;;;;;;4901321;29;20427;-75
2021/03/03 00:54:02;;;;;;;9.60;7.35;;;0.10;99.90;;;;;;4913069;29;20410;-77
2021/03/03 00:56:30;;;;;;;10.07;6.97;;;0.10;99.90;;;;;;4887253;29;20401;-77
2021/03/03 00:58:57;;;;;;;7.68;6.10;;;0.20;99.90;;;;;;4894965;29;20835;-76
2021/03/03 01:01:23;;;;;;;9.68;6.82;;;0.00;99.90;;;;;;4876874;29;20419;-76
2021/03/03 01:03:49;;;;;;;9.15;6.88;;;0.00;99.90;;;;;;4898552;29;20896;-75
2021/03/03 01:06:23;;;;;;;8.77;7.27;;;0.00;99.90;;;;;;4893379;29;20400;-78
2021/03/03 01:08:51;;;;;;;9.57;7.93;;;0.00;99.90;;;;;;4910227;29;20817;-75
2021/03/03 01:11:17;;;;;;;10.55;7.53;;;-0.10;99.90;;;;;;4895243;29;20404;-75
2021/03/03 01:13:45;;;;;;;8.13;6.90;;;-0.10;99.90;;;;;;4890287;29;20479;-76
2021/03/03 01:16:16;;;;;;;10.30;6.78;;;-0.10;99.90;;;;;;4892298;29;20817;-76
2021/03/03 01:18:44;;;;;;;10.38;7.85;;;-0.10;99.90;;;;;;4917333;29;20407;-76
2021/03/03 01:21:10;;;;;;;10.10;6.67;;;-0.20;99.90;;;;;;4929731;29;20383;-76
2021/03/03 01:23:36;;;;;;;10.70;7.63;;;-0.20;99.90;;;;;;4918249;29;20419;-76
2021/03/03 01:26:01;;;;;;;10.65;7.72;;;-0.20;99.90;;;;;;4869952;29;20395;-76
2021/03/03 01:28:27;;;;;;;8.07;6.80;;;-0.20;99.90;;;;;;4905125;29;20394;-75
2021/03/03 01:30:54;;;;;;;11.15;6.95;;;-0.20;99.90;;;;;;4927753;29;20406;-76
2021/03/03 01:33:26;;;;;;;11.38;7.63;;;-0.20;99.90;;;;;;4898688;29;20423;-76
2021/03/03 01:35:52;;;;;;;9.95;7.68;;;-0.20;99.90;;;;;;4896100;29;20408;-75
2021/03/03 01:38:18;;;;;;;7.97;6.70;;;-0.30;99.90;;;;;;4897547;29;20434;-76
2021/03/03 01:40:43;;;;;;;10.93;6.83;;;-0.20;99.90;;;;;;4912827;29;20411;-76
2021/03/03 01:43:09;;;;;;;10.93;6.75;;;-0.30;99.90;;;;;;4906455;28;20399;-76
2021/03/03 01:45:35;;;;;;;8.60;6.47;;;-0.30;99.90;;;;;;4892760;29;21859;-76
2021/03/03 01:48:00;;;;;;;7.63;6.17;;;-0.40;99.90;;;;;;4889861;29;20405;-76
2021/03/03 01:50:26;;;;;;;9.93;7.70;;;-0.40;99.90;;;;;;4882367;29;20474;-76
2021/03/03 01:52:52;;;;;;;8.07;7.03;;;-0.40;99.90;;;;;;4896728;29;20502;-77
2021/03/03 01:55:17;;;;;;;9.47;6.93;;;-0.40;99.90;;;;;;4892869;29;20921;-75
2021/03/03 01:57:43;;;;;;;12.00;7.30;;;-0.40;99.90;;;;;;4896643;29;20767;-76
2021/03/03 02:00:09;;;;;;;10.77;8.32;;;-0.40;99.90;;;;;;4933728;29;20445;-75
2021/03/03 02:02:39;;;;;;;10.05;7.95;;;-0.50;99.90;;;;;;4913138;29;20426;-75
2021/03/03 02:05:05;;;;;;;8.60;7.23;;;-0.60;99.90;;;;;;4896102;29;20494;-76
2021/03/03 02:07:55;;;;;;;10.10;7.60;;;-0.60;99.90;;;;;;4912630;29;20462;-77
2021/03/03 02:10:23;;;;;;;10.05;7.07;;;-0.60;99.90;;;;;;4899591;29;20538;-76
2021/03/03 02:13:04;;;;;;;10.73;7.03;;;-0.60;99.90;;;;;;4920013;29;20424;-77
2021/03/03 02:15:30;;;;;;;9.68;7.38;;;-0.70;99.90;;;;;;4892916;29;20411;-77
2021/03/03 02:17:56;;;;;;;10.25;7.30;;;-0.70;99.90;;;;;;4900744;29;20402;-76
2021/03/03 02:20:24;;;;;;;9.25;6.93;;;-0.80;99.90;;;;;;4880748;29;20419;-76
2021/03/03 02:22:59;;;;;;;11.68;7.70;;;-0.80;99.90;;;;;;4895429;29;20399;-76
2021/03/03 02:25:36;;;;;;;8.93;7.00;;;-0.90;99.90;;;;;;4911309;29;20522;-77
2021/03/03 02:28:04;;;;;;;8.18;6.93;;;-0.90;99.90;;;;;;4898437;29;20498;-78
2021/03/03 02:30:30;;;;;;;11.65;7.35;;;-0.90;99.90;;;;;;4887795;29;20447;-76
2021/03/03 02:32:56;;;;;;;11.40;6.78;;;-0.90;99.90;;;;;;4912188;29;20408;-81
2021/03/03 02:35:22;;;;;;;7.97;6.35;;;-0.90;99.90;;;;;;4902231;28;20750;-76
2021/03/03 02:37:48;;;;;;;8.23;6.50;;;-1.00;99.90;;;;;;4901338;29;20411;-76
2021/03/03 02:40:14;;;;;;;7.87;6.80;;;-0.90;99.90;;;;;;4879823;29;20836;-75
2021/03/03 02:42:40;;;;;;;10.02;6.55;;;-1.00;99.90;;;;;;4901149;29;20494;-75
2021/03/03 02:45:11;;;;;;;7.65;6.85;;;-1.00;99.90;;;;;;4918896;29;20504;-77
2021/03/03 02:47:37;;;;;;;10.20;7.07;;;-1.00;99.90;;;;;;4900942;29;20429;-76
2021/03/03 02:50:05;;;;;;;7.82;6.80;;;-1.00;99.90;;;;;;4918847;29;20422;-75
2021/03/03 02:52:45;;;;;;;13.98;7.35;;;-1.10;99.90;;;;;;4918074;29;20901;-75
2021/03/03 02:55:11;;;;;;;10.87;6.80;;;-1.10;99.90;;;;;;4921980;29;20495;-76
2021/03/03 02:57:37;;;;;;;9.63;6.43;;;-1.10;99.90;;;;;;4910253;29;20432;-75
2021/03/03 03:00:03;;;;;;;8.73;6.82;;;-1.10;99.90;;;;;;4910071;29;20422;-76
2021/03/03 03:02:30;;;;;;;9.25;7.20;;;-1.20;99.90;;;;;;4897994;29;21195;-75
2021/03/03 03:04:56;;;;;;;10.70;7.90;;;-1.20;99.90;;;;;;4895265;29;20407;-75
2021/03/03 03:07:21;;;;;;;9.57;7.18;;;-1.30;99.90;;;;;;4876974;29;20755;-75
2021/03/03 03:09:48;;;;;;;8.80;6.83;;;-1.40;99.90;;;;;;4904146;28;20408;-77
2021/03/03 03:12:15;;;;;;;8.95;7.05;;;-1.40;99.90;;;;;;4899670;29;20499;-75
2021/03/03 03:14:41;;;;;;;11.43;7.07;;;-1.40;99.90;;;;;;4908707;29;20423;-81
2021/03/03 03:17:07;;;;;;;9.70;7.40;;;-1.30;99.90;;;;;;4879887;29;20432;-75
2021/03/03 03:19:37;;;;;;;9.95;6.90;;;-1.30;99.90;;;;;;4901083;29;20420;-75
2021/03/03 03:22:04;;;;;;;8.77;7.03;;;-1.30;99.90;;;;;;4933358;29;20419;-75
2021/03/03 03:24:30;;;;;;;10.48;8.02;;;-1.40;99.90;;;;;;4894416;29;21324;-77
2021/03/03 03:26:56;;;;;;;10.68;7.32;;;-1.40;99.90;;;;;;4904819;29;20411;-76
2021/03/03 03:29:21;;;;;;;10.20;6.70;;;-1.40;99.90;;;;;;4903079;29;20405;-76
2021/03/03 03:31:47;;;;;;;9.30;6.70;;;-1.40;99.90;;;;;;4930068;29;20905;-76
2021/03/03 03:34:13;;;;;;;10.35;6.70;;;-1.40;99.90;;;;;;4888246;28;20411;-78
2021/03/03 03:36:39;;;;;;;11.35;7.45;;;-1.50;99.90;;;;;;4902870;29;20398;-78
2021/03/03 03:39:08;;;;;;;9.13;7.03;;;-1.50;99.90;;;;;;4911845;29;20411;-77
2021/03/03 03:41:34;;;;;;;11.00;6.80;;;-1.50;99.90;;;;;;4900888;29;20850;-77
2021/03/03 03:44:00;;;;;;;10.20;7.63;;;-1.50;99.90;;;;;;4915852;29;20388;-79
2021/03/03 03:46:26;;;;;;;9.70;6.83;;;-1.50;99.90;;;;;;4898620;29;20486;-78
2021/03/03 03:48:52;;;;;;;8.10;6.80;;;-1.50;99.90;;;;;;4930538;28;20431;-75
2021/03/03 03:51:18;;;;;;;8.37;7.03;;;-1.50;99.90;;;;;;4897545;29;20436;-75
2021/03/03 03:53:43;;;;;;;9.50;7.13;;;-1.50;99.90;;;;;;4917807;29;20428;-75
2021/03/03 03:56:10;;;;;;;8.65;6.38;;;-1.60;99.90;;;;;;4880812;29;20413;-77
2021/03/03 03:58:36;;;;;;;9.00;7.20;;;-1.60;99.90;;;;;;4894203;29;20569;-76
2021/03/03 04:01:02;;;;;;;8.20;6.70;;;-1.70;99.90;;;;;;4910519;29;20558;-76
2021/03/03 04:03:31;;;;;;;9.40;6.63;;;-1.80;99.90;;;;;;4901554;29;20498;-76
2021/03/03 04:05:56;;;;;;;10.07;6.70;;;-1.80;99.90;;;;;;4921013;29;20420;-76
2021/03/03 04:08:22;;;;;;;9.60;6.75;;;-1.80;99.90;;;;;;4900631;29;20419;-76
2021/03/03 04:10:48;;;;;;;8.17;6.77;;;-1.90;99.90;;;;;;4911487;29;20410;-77
2021/03/03 04:13:13;;;;;;;8.63;6.70;;;-1.80;99.90;;;;;;4894524;29;20983;-75
2021/03/03 04:15:39;;;;;;;7.38;6.20;;;-1.90;99.90;;;;;;4880990;29;20446;-75
2021/03/03 04:18:05;;;;;;;8.60;6.13;;;-1.80;99.90;;;;;;4918726;29;20403;-77
2021/03/03 04:20:30;;;;;;;10.95;6.65;;;-1.90;99.90;;;;;;4919940;29;20529;-76
2021/03/03 04:22:56;;;;;;;6.78;5.70;;;-1.90;99.90;;;;;;4923420;29;20470;-77
2021/03/03 04:25:22;;;;;;;8.35;6.68;;;-1.90;99.90;;;;;;4896711;29;20415;-75
2021/03/03 04:27:48;;;;;;;7.53;6.57;;;-1.90;99.90;;;;;;4911471;29;20912;-75
2021/03/03 04:30:15;;;;;;;9.87;6.53;;;-1.90;99.90;;;;;;4902652;29;20395;-75
2021/03/03 04:32:40;;;;;;;7.53;6.63;;;-1.90;99.90;;;;;;4914555;29;20419;-77
2021/03/03 04:35:07;;;;;;;7.83;7.03;;;-1.90;99.90;;;;;;4901637;29;20820;-76
2021/03/03 04:37:33;;;;;;;9.82;7.28;;;-2.00;99.90;;;;;;4909161;29;20419;-76
2021/03/03 04:39:59;;;;;;;11.00;6.85;;;-2.10;99.90;;;;;;4926413;29;20414;-76
2021/03/03 04:42:25;;;;;;;8.15;6.78;;;-2.10;99.90;;;;;;4910430;29;20418;-76
2021/03/03 04:44:51;;;;;;;10.70;7.50;;;-2.10;99.90;;;;;;4922497;29;20399;-76
2021/03/03 04:47:16;;;;;;;10.00;7.68;;;-2.10;99.90;;;;;;4922152;28;20434;-76
2021/03/03 04:49:42;;;;;;;10.17;8.27;;;-2.10;99.90;;;;;;4934284;28;20408;-76
2021/03/03 04:52:08;;;;;;;11.93;9.30;;;-2.10;99.90;;;;;;4926888;29;20431;-76
2021/03/03 04:54:34;;;;;;;12.32;9.68;;;-2.10;99.90;;;;;;4911882;29;20418;-76
2021/03/03 04:57:01;;;;;;;12.63;9.88;;;-2.10;99.90;;;;;;4894753;29;20501;-76
2021/03/03 04:59:27;;;;;;;15.52;10.77;;;-2.10;99.90;;;;;;4892406;29;20409;-75
2021/03/03 05:01:52;;;;;;;19.00;14.30;;;-2.10;99.90;;;;;;4922345;28;20477;-76
2021/03/03 05:04:18;;;;;;;17.50;13.23;;;-2.10;99.90;;;;;;4929317;29;20410;-76
2021/03/03 05:06:44;;;;;;;14.00;10.60;;;-2.10;99.90;;;;;;4939266;28;20412;-76
2021/03/03 05:09:09;;;;;;;14.43;10.47;;;-2.10;99.90;;;;;;4897671;29;20431;-76
2021/03/03 05:11:35;;;;;;;13.13;9.57;;;-2.10;99.90;;;;;;4894178;29;20424;-76
2021/03/03 05:14:01;;;;;;;13.00;9.27;;;-2.10;99.90;;;;;;4912839;29;20414;-76
2021/03/03 05:16:26;;;;;;;12.93;9.13;;;-2.20;99.90;;;;;;4929053;29;20405;-76
2021/03/03 05:18:52;;;;;;;13.77;9.73;;;-2.20;99.90;;;;;;4915462;29;20400;-76
2021/03/03 05:21:18;;;;;;;10.85;8.07;;;-2.20;99.90;;;;;;4914129;29;20445;-75
2021/03/03 05:23:43;;;;;;;10.48;8.25;;;-2.20;99.90;;;;;;4907213;28;20910;-75
2021/03/03 05:26:09;;;;;;;14.77;8.93;;;-2.20;99.90;;;;;;4902008;29;20405;-76
2021/03/03 05:28:35;;;;;;;12.73;8.57;;;-2.20;99.90;;;;;;4922093;28;20403;-76
2021/03/03 05:31:01;;;;;;;11.67;8.77;;;-2.20;99.90;;;;;;4925262;28;20481;-76
2021/03/03 05:33:31;;;;;;;11.52;8.68;;;-2.20;99.90;;;;;;4903569;29;20926;-76
2021/03/03 05:35:58;;;;;;;11.25;7.95;;;-2.20;99.90;;;;;;4911973;29;20408;-77
2021/03/03 05:38:24;;;;;;;9.60;8.38;;;-2.30;99.90;;;;;;4895638;29;20850;-79
2021/03/03 05:40:50;;;;;;;13.73;8.33;;;-2.30;99.90;;;;;;4914256;28;20433;-77
2021/03/03 05:43:16;;;;;;;9.77;8.13;;;-2.30;99.90;;;;;;4914418;29;20915;-77
2021/03/03 05:45:42;;;;;;;10.37;7.50;;;-2.30;99.90;;;;;;4902432;28;20421;-76
2021/03/03 05:48:23;;;;;;;8.48;7.25;;;-2.30;99.90;;;;;;4908749;29;20469;-77
2021/03/03 05:51:07;;;;;;;10.30;7.47;;;-2.30;99.90;;;;;;4921097;29;21052;-77
2021/03/03 05:53:33;;;;;;;9.48;7.60;;;-2.30;99.90;;;;;;4914809;28;20454;-77
2021/03/03 05:56:00;;;;;;;7.88;7.00;;;-2.30;99.90;;;;;;4909302;29;20784;-78
2021/03/03 05:58:31;;;;;;;10.23;8.25;;;-2.30;99.90;;;;;;4883468;29;20412;-77
2021/03/03 06:00:58;;;;;;;9.32;7.05;;;-2.30;99.90;;;;;;4894430;29;20587;-76
2021/03/03 06:03:24;;;;;;;9.35;7.50;;;-2.40;99.90;;;;;;4888908;29;20404;-78
2021/03/03 06:05:50;;;;;;;9.13;6.78;;;-2.30;99.90;;;;;;4909827;29;20811;-78
2021/03/03 06:08:18;;;;;;;8.20;6.65;;;-2.30;99.90;;;;;;4896939;29;20898;-79
2021/03/03 06:10:44;;;;;;;11.23;7.30;;;-2.30;99.90;;;;;;4886366;29;20402;-79
2021/03/03 06:13:10;;;;;;;8.05;6.75;;;-2.30;99.90;;;;;;4921166;29;20467;-79
2021/03/03 06:15:35;;;;;;;8.40;7.05;;;-2.30;99.90;;;;;;4894224;29;20419;-77
2021/03/03 06:18:01;;;;;;;8.87;6.70;;;-2.20;99.90;;;;;;4922223;29;20404;-77
2021/03/03 06:20:27;;;;;;;9.07;6.23;;;-2.20;99.90;;;;;;4900819;29;20415;-76
2021/03/03 06:22:53;;;;;;;6.87;6.17;;;-2.20;99.90;;;;;;4927761;29;20531;-76
2021/03/03 06:25:20;;;;;;;9.77;7.18;;;-2.20;99.90;;;;;;4897934;29;20407;-76
2021/03/03 06:27:46;;;;;;;8.43;6.50;;;-2.20;99.90;;;;;;4896889;29;20450;-76
2021/03/03 06:30:15;;;;;;;8.05;6.90;;;-2.20;99.90;;;;;;4896130;28;20808;-76
2021/03/03 06:32:58;;;;;;;8.55;6.90;;;-2.10;99.90;;;;;;4901929;29;20464;-75
2021/03/03 06:35:44;;;;;;;10.50;7.43;;;-2.10;99.90;;;;;;4906269;29;20409;-76
2021/03/03 06:38:11;;;;;;;9.65;7.13;;;-2.10;99.90;;;;;;4901871;29;20976;-77
2021/03/03 06:40:53;;;;;;;9.27;7.10;;;-2.10;99.90;;;;;;4889290;29;20410;-77
2021/03/03 06:43:29;;;;;;;8.87;7.13;;;-2.00;99.90;;;;;;4923488;29;20479;-77
2021/03/03 06:45:54;;;;;;;11.38;6.90;;;-2.00;99.90;;;;;;4893852;29;21021;-76
2021/03/03 06:48:37;;;;;;;9.50;7.73;;;-1.90;99.90;;;;;;4907426;29;20410;-77
2021/03/03 06:51:23;;;;;;;9.70;7.37;;;-1.90;99.90;;;;;;4927165;28;20415;-78
2021/03/03 06:53:49;;;;;;;8.98;7.00;;;-1.80;99.90;;;;;;4932067;28;20418;-76
2021/03/03 06:56:43;;;;;;;10.95;7.20;;;-1.80;99.90;;;;;;4896693;29;20948;-77
2021/03/03 06:59:18;;;;;;;7.82;7.00;;;-1.70;99.90;;;;;;4910143;29;20474;-78
2021/03/03 07:01:45;;;;;;;9.30;7.03;;;-1.60;99.90;;;;;;4908657;29;20908;-78
2021/03/03 07:04:20;;;;;;;11.50;7.93;;;-1.60;99.90;;;;;;4927224;29;20506;-77
2021/03/03 07:06:46;;;;;;;9.85;7.95;;;-1.50;99.90;;;;;;4889293;29;20432;-78
2021/03/03 07:09:12;;;;;;;9.73;7.78;;;-1.40;99.90;;;;;;4912189;29;20462;-77
2021/03/03 07:11:41;;;;;;;12.70;9.53;;;-1.30;99.90;;;;;;4913734;29;20442;-80
2021/03/03 07:14:20;;;;;;;10.52;9.07;;;-1.20;99.90;;;;;;4903531;29;20415;-77
2021/03/03 07:17:06;;;;;;;10.40;8.80;;;-1.10;99.90;;;;;;4921801;29;20883;-77
2021/03/03 07:19:33;;;;;;;9.13;8.07;;;-1.00;99.90;;;;;;4910641;29;20411;-77
2021/03/03 07:21:58;;;;;;;11.20;8.73;;;-0.80;99.90;;;;;;4914732;29;20806;-77
2021/03/03 07:24:25;;;;;;;10.70;8.40;;;-0.80;99.90;;;;;;4901363;29;20403;-77
2021/03/03 07:26:50;;;;;;;9.43;7.50;;;-0.70;99.90;;;;;;4904647;29;20458;-76
2021/03/03 07:29:16;;;;;;;8.50;7.40;;;-0.60;99.90;;;;;;4922430;29;20415;-77
2021/03/03 07:31:42;;;;;;;9.43;8.25;;;-0.40;99.90;;;;;;4934488;28;20415;-77
2021/03/03 07:34:08;;;;;;;11.20;8.68;;;-0.40;99.90;;;;;;4901332;29;20482;-79
2021/03/03 07:36:34;;;;;;;11.40;8.60;;;-0.20;99.90;;;;;;4905024;29;20414;-77
2021/03/03 07:39:02;;;;;;;11.80;9.03;;;-0.10;99.90;;;;;;4898731;29;20454;-77
2021/03/03 07:41:28;;;;;;;11.15;8.70;;;0.00;99.90;;;;;;4895698;29;20434;-78
2021/03/03 07:43:53;;;;;;;11.75;8.63;;;0.10;99.90;;;;;;4898395;29;20397;-78
2021/03/03 07:46:19;;;;;;;11.05;8.75;;;0.20;99.90;;;;;;4916304;29;20494;-78
2021/03/03 07:48:47;;;;;;;11.30;8.77;;;0.30;99.90;;;;;;4922845;29;20407;-78
2021/03/03 07:51:12;;;;;;;10.82;8.73;;;0.50;99.90;;;;;;4895686;29;20400;-78
2021/03/03 07:53:39;;;;;;;11.93;9.38;;;0.60;99.90;;;;;;4895241;29;20931;-79
2021/03/03 07:56:07;;;;;;;11.57;9.17;;;0.80;99.90;;;;;;4896485;29;20407;-78
2021/03/03 07:58:33;;;;;;;11.52;9.48;;;0.90;99.90;;;;;;4883810;29;21112;-78
2021/03/03 08:00:59;;;;;;;11.68;9.65;;;1.10;99.90;;;;;;4932177;29;20410;-78
2021/03/03 08:03:44;;;;;;;11.20;8.73;;;1.20;99.90;;;;;;4896521;29;20458;-78
2021/03/03 08:06:31;;;;;;;13.45;8.75;;;1.20;99.90;;;;;;4894581;29;20407;-83
2021/03/03 08:09:06;;;;;;;10.13;8.73;;;1.40;99.90;;;;;;4919021;29;20773;-79
2021/03/03 08:11:39;;;;;;;11.52;8.77;;;1.60;99.90;;;;;;4920787;29;20414;-78
2021/03/03 08:14:30;;;;;;;12.70;8.88;;;1.70;99.90;;;;;;4925899;28;20405;-78
2021/03/03 08:17:06;;;;;;;11.63;8.50;;;1.80;99.90;;;;;;4918782;28;20470;-78
2021/03/03 08:19:47;;;;;;;10.82;8.45;;;1.90;99.90;;;;;;4908297;29;20414;-78
2021/03/03 08:22:13;;;;;;;11.98;9.15;;;2.00;99.90;;;;;;4932726;28;20812;-79
2021/03/03 08:24:39;;;;;;;10.23;7.77;;;2.20;99.90;;;;;;4918422;29;20394;-78
2021/03/03 08:27:32;;;;;;;10.60;9.05;;;2.20;99.90;;;;;;4902660;29;20431;-78
2021/03/03 08:30:11;;;;;;;9.43;7.57;;;2.40;99.90;;;;;;4924191;29;20412;-79
2021/03/03 08:32:37;;;;;;;10.85;8.73;;;2.50;99.90;;;;;;4928668;29;20448;-79
2021/03/03 08:35:03;;;;;;;12.20;8.43;;;2.60;99.90;;;;;;4919915;29;20452;-78
2021/03/03 08:37:30;;;;;;;10.52;7.97;;;2.80;99.90;;;;;;4910323;29;20431;-78
2021/03/03 08:39:56;;;;;;;11.75;7.65;;;2.90;99.90;;;;;;4912257;29;20416;-79
2021/03/03 08:42:29;;;;;;;10.75;8.23;;;3.20;99.90;;;;;;4918197;28;20419;-79
2021/03/03 08:45:06;;;;;;;9.05;7.93;;;3.30;99.90;;;;;;4932384;28;20766;-79
2021/03/03 08:47:49;;;;;;;9.05;7.93;;;3.50;99.90;;;;;;4922945;29;20735;-79
2021/03/03 08:50:32;;;;;;;9.20;7.47;;;3.60;99.90;;;;;;4916587;29;20443;-79
2021/03/03 08:53:17;;;;;;;9.02;7.40;;;3.70;99.90;;;;;;4898930;29;20427;-79
2021/03/03 08:55:43;;;;;;;9.13;8.05;;;3.80;99.90;;;;;;4935235;29;20414;-79
2021/03/03 08:58:48;;;;;;;9.70;7.80;;;3.90;99.90;;;;;;4917791;29;20750;-79
2021/03/03 09:01:13;;;;;;;10.20;7.93;;;4.00;99.90;;;;;;4900470;29;20407;-79
2021/03/03 09:03:39;;;;;;;9.47;7.70;;;4.30;99.90;;;;;;4903363;29;21467;-79
2021/03/03 09:06:05;;;;;;;8.93;7.55;;;4.30;99.90;;;;;;4923180;29;20419;-79
2021/03/03 09:08:30;;;;;;;9.27;7.45;;;4.40;99.90;;;;;;4899081;29;20413;-78
2021/03/03 09:10:56;;;;;;;11.13;8.10;;;4.60;99.90;;;;;;4904733;29;20983;-79
2021/03/03 09:13:28;;;;;;;8.85;7.57;;;4.80;99.90;;;;;;4897690;29;20501;-79
2021/03/03 09:16:07;;;;;;;9.32;7.40;;;4.90;99.90;;;;;;4913744;29;20434;-78
2021/03/03 09:18:34;;;;;;;8.07;7.22;;;5.10;99.90;;;;;;4886918;29;20429;-78
2021/03/03 09:21:08;;;;;;;13.15;8.25;;;5.20;99.90;;;;;;4919745;28;20510;-79
2021/03/03 09:23:34;;;;;;;8.43;7.32;;;5.40;99.90;;;;;;4914380;29;20459;-78
2021/03/03 09:26:00;;;;;;;8.48;6.70;;;5.60;99.90;;;;;;4920858;28;20414;-78
2021/03/03 09:28:38;;;;;;;9.20;7.25;;;5.70;99.90;;;;;;4915590;29;20431;-79
2021/03/03 09:31:03;;;;;;;9.48;6.50;;;6.10;99.90;;;;;;4926036;29;20410;-78
2021/03/03 09:33:30;;;;;;;8.38;6.75;;;6.20;99.90;;;;;;4913139;29;20423;-78
2021/03/03 09:35:56;;;;;;;10.77;7.80;;;6.30;99.90;;;;;;4920154;29;20403;-78
2021/03/03 09:38:22;;;;;;;8.87;6.60;;;6.50;99.90;;;;;;4929766;29;20404;-79
2021/03/03 09:40:48;;;;;;;10.57;6.60;;;6.60;99.90;;;;;;4922119;29;20576;-79
2021/03/03 09:43:15;;;;;;;10.53;7.17;;;7.00;99.90;;;;;;4923687;29;20894;-79
2021/03/03 09:45:40;;;;;;;8.63;6.95;;;7.20;99.90;;;;;;4940399;28;20422;-79
2021/03/03 09:48:06;;;;;;;9.13;7.30;;;7.60;99.90;;;;;;4930206;29;20413;-78
2021/03/03 09:50:36;;;;;;;8.37;7.17;;;7.70;99.90;;;;;;4931531;29;20414;-79
2021/03/03 09:53:01;;;;;;;7.97;7.00;;;7.90;99.90;;;;;;4912919;29;20423;-78
2021/03/03 09:55:32;;;;;;;8.38;7.00;;;8.10;99.90;;;;;;4912576;29;20474;-79
2021/03/03 09:57:58;;;;;;;7.82;7.03;;;8.10;99.90;;;;;;4920030;29;20549;-77
2021/03/03 10:00:25;;;;;;;8.60;6.75;;;8.20;99.90;;;;;;4921717;29;20410;-79
2021/03/03 10:02:52;;;;;;;9.95;7.13;;;8.30;99.90;;;;;;4907959;29;20486;-78
2021/03/03 10:05:18;;;;;;;8.40;7.05;;;8.40;99.90;;;;;;4927692;28;20399;-78
2021/03/03 10:07:48;;;;;;;8.85;7.03;;;8.50;99.90;;;;;;4904058;29;20400;-78
2021/03/03 10:10:16;;;;;;;8.73;6.93;;;8.60;99.90;;;;;;4923034;28;20408;-79
2021/03/03 10:12:42;;;;;;;8.23;6.80;;;8.70;99.90;;;;;;4902034;29;20441;-79
2021/03/03 10:15:09;;;;;;;8.95;7.10;;;8.90;99.90;;;;;;4897287;29;20402;-78
2021/03/03 10:17:36;;;;;;;10.02;7.57;;;9.00;99.90;;;;;;4927190;29;20409;-78
2021/03/03 10:20:40;;;;;;;8.43;7.05;;;9.20;99.90;;;;;;4896673;29;20917;-78
2021/03/03 10:23:08;;;;;;;9.63;7.05;;;9.20;99.90;;;;;;4898456;29;20888;-78
2021/03/03 10:26:02;;;;;;;9.73;7.72;;;9.40;99.90;;;;;;4920482;29;20828;-80
2021/03/03 10:28:28;;;;;;;10.95;7.63;;;9.60;99.90;;;;;;4926028;29;20419;-80
2021/03/03 10:30:57;;;;;;;9.13;6.82;;;9.60;99.90;;;;;;4915650;29;20482;-80
2021/03/03 10:33:41;;;;;;;9.02;6.47;;;9.80;99.90;;;;;;4915466;29;20522;-80
2021/03/03 10:36:08;;;;;;;8.52;7.00;;;10.00;99.90;;;;;;4899745;29;20480;-80
2021/03/03 10:38:35;;;;;;;8.02;6.50;;;10.10;99.90;;;;;;4920918;29;20486;-80
2021/03/03 10:41:02;;;;;;;6.90;6.07;;;10.20;99.90;;;;;;4915421;29;20897;-80
2021/03/03 10:43:28;;;;;;;7.90;6.13;;;10.40;99.90;;;;;;4916310;29;21044;-80
2021/03/03 10:46:09;;;;;;;7.65;6.25;;;10.60;99.90;;;;;;4932960;29;20482;-80
2021/03/03 10:48:35;;;;;;;7.50;6.30;;;10.80;99.90;;;;;;4895620;29;20408;-79
2021/03/03 10:51:02;;;;;;;6.87;5.83;;;11.00;99.90;;;;;;4898835;29;20869;-80
2021/03/03 10:54:03;;;;;;;7.43;5.57;;;11.10;99.90;;;;;;4897470;29;20415;-80
2021/03/03 10:56:30;;;;;;;9.07;6.90;;;11.40;99.90;;;;;;4838195;29;20995;-79
2021/03/03 10:58:57;;;;;;;7.78;6.28;;;11.50;99.90;;;;;;4907260;29;20920;-79
2021/03/03 11:01:24;;;;;;;7.82;5.47;;;11.80;99.90;;;;;;4936089;28;20410;-79
2021/03/03 11:03:57;;;;;;;9.07;6.57;;;12.00;99.90;;;;;;4903212;29;20409;-79
2021/03/03 11:06:28;;;;;;;8.85;6.30;;;12.20;99.90;;;;;;4908408;29;20410;-79
2021/03/03 11:08:54;;;;;;;7.20;5.32;;;12.40;99.90;;;;;;4909410;29;20814;-79
2021/03/03 11:11:20;;;;;;;7.85;5.70;;;12.70;99.90;;;;;;4922926;29;20461;-79
2021/03/03 11:13:45;;;;;;;6.82;5.78;;;12.80;99.90;;;;;;4911910;29;20412;-79
2021/03/03 11:16:11;;;;;;;7.90;5.97;;;13.00;99.90;;;;;;4895772;29;20490;-79
2021/03/03 11:18:37;;;;;;;6.63;5.65;;;13.10;99.90;;;;;;4910358;29;20429;-82
2021/03/03 11:21:02;;;;;;;6.10;5.50;;;13.30;99.90;;;;;;4924559;29;20892;-82
2021/03/03 11:23:28;;;;;;;7.13;5.57;;;13.60;99.90;;;;;;4896945;29;20408;-82
2021/03/03 11:25:57;;;;;;;7.47;5.77;;;13.80;99.90;;;;;;4896970;29;20411;-82
2021/03/03 11:28:24;;;;;;;7.20;6.15;;;14.00;99.90;;;;;;4879162;29;20405;-82
2021/03/03 11:30:50;;;;;;;7.35;5.22;;;14.20;99.90;;;;;;4936380;29;20479;-81
2021/03/03 11:33:16;;;;;;;8.00;5.65;;;14.20;99.90;;;;;;4894383;29;20417;-81
2021/03/03 11:35:41;;;;;;;8.07;6.10;;;14.30;99.90;;;;;;4880788;29;20419;-79
2021/03/03 11:38:07;;;;;;;6.93;6.20;;;14.50;99.90;;;;;;4895075;29;20419;-79
2021/03/03 11:40:33;;;;;;;8.20;5.87;;;14.80;99.90;;;;;;4904366;29;20463;-79
2021/03/03 11:42:58;;;;;;;6.63;5.88;;;14.80;99.90;;;;;;4897002;28;20408;-80
2021/03/03 11:45:24;;;;;;;5.97;5.38;;;14.80;99.90;;;;;;4904425;29;20423;-80
2021/03/03 11:47:50;;;;;;;8.37;5.37;;;15.00;99.90;;;;;;4901620;28;20482;-81
2021/03/03 11:50:16;;;;;;;8.15;5.82;;;15.20;99.90;;;;;;4927587;29;20407;-80
2021/03/03 11:52:41;;;;;;;6.87;5.70;;;15.30;99.90;;;;;;4897420;29;20436;-80
2021/03/03 11:55:07;;;;;;;7.72;5.57;;;15.40;99.90;;;;;;4896754;29;20466;-80
2021/03/03 11:57:33;;;;;;;7.93;5.63;;;15.60;99.90;;;;;;4899280;29;20414;-79
2021/03/03 11:59:59;;;;;;;6.03;5.13;;;15.70;99.90;;;;;;4920606;29;20411;-79
2021/03/03 12:02:24;;;;;;;6.53;5.47;;;15.70;99.30;;;;;;4912870;29;20411;-80
2021/03/03 12:04:50;;;;;;;7.27;5.50;;;15.90;97.30;;;;;;4922653;29;20760;-80
2021/03/03 12:07:16;;;;;;;8.77;6.50;;;16.00;97.90;;;;;;4912548;29;20446;-80
2021/03/03 12:09:42;;;;;;;7.87;5.50;;;16.10;98.40;;;;;;4913409;28;20411;-80
2021/03/03 12:12:08;;;;;;;7.63;6.00;;;16.30;96.80;;;;;;4914597;29;20407;-80
2021/03/03 12:14:34;;;;;;;8.25;5.95;;;16.40;95.50;;;;;;4913933;29;20408;-79
2021/03/03 12:16:59;;;;;;;7.25;5.93;;;16.20;95.30;;;;;;4899340;29;20407;-81
2021/03/03 12:19:25;;;;;;;6.53;5.20;;;16.30;96.00;;;;;;4924260;28;20411;-80
2021/03/03 12:21:51;;;;;;;8.25;5.82;;;16.40;94.70;;;;;;4929426;29;20412;-79
2021/03/03 12:24:16;;;;;;;9.85;6.32;;;16.50;95.10;;;;;;4929115;28;20558;-80
2021/03/03 12:26:42;;;;;;;9.17;6.07;;;16.40;93.00;;;;;;4915811;28;20414;-80
2021/03/03 12:29:08;;;;;;;11.55;5.90;;;16.50;94.00;;;;;;4915902;29;20771;-80
2021/03/03 12:31:33;;;;;;;8.95;6.40;;;16.60;92.80;;;;;;4923554;29;20863;-79
2021/03/03 12:33:59;;;;;;;7.13;5.65;;;16.60;95.10;;;;;;4900597;29;20490;-80
2021/03/03 12:36:25;;;;;;;7.90;6.20;;;16.70;94.60;;;;;;4901097;29;20450;-79
2021/03/03 12:38:51;;;;;;;7.72;6.20;;;16.80;93.20;;;;;;4891465;29;20404;-80
2021/03/03 12:41:16;;;;;;;6.13;4.90;;;16.80;92.90;;;;;;4900532;29;20919;-80
2021/03/03 12:43:42;;;;;;;7.40;5.93;;;16.80;92.30;;;;;;4897502;29;20445;-80
2021/03/03 12:46:08;;;;;;;7.93;5.88;;;16.70;92.20;;;;;;4931538;28;20462;-79
2021/03/03 12:48:33;;;;;;;7.40;6.10;;;16.60;90.90;;;;;;4931953;28;20399;-79
2021/03/03 12:50:59;;;;;;;7.22;5.75;;;16.50;91.10;;;;;;4916642;29;20466;-80